Time;durP1;ratioP1;P1;durP2;ratioP2;P2;SDS_P1;SDS_P2;PMS_P1;PMS_P2;Temp;Humidity;BMP_temperature;BMP_pressure;BME280_temperature;BME280_humidity;BME280_pressure;Samples;Min_cycle;Max_cycle;Signal;HPM_P1;HPM_P2
2023/10/21 00:02:11;;;;;;;1.80;0.85;;;;;;;14.78;100.00;96851.22;12198261;19;20011;-80
2023/10/21 00:06:12;;;;;;;7.55;2.72;;;;;;;14.74;100.00;96856.66;12208140;19;20033;-79
2023/10/21 00:10:14;;;;;;;1.95;0.70;;;;;;;14.60;100.00;96858.97;12206326;19;20372;-79
2023/10/21 00:14:17;;;;;;;1.67;0.60;;;;;;;14.63;100.00;96868.56;12182973;19;20015;-81
2023/10/21 00:18:19;;;;;;;;;;;;;;;14.78;100.00;96871.44;12200722;19;20007;-79
2023/10/21 00:22:21;;;;;;;1.00;0.60;;;;;;;14.99;100.00;96876.84;12179924;19;19907;-77
2023/10/21 00:26:23;;;;;;;2.40;0.77;;;;;;;15.24;100.00;96883.09;12173345;19;20058;-80
2023/10/21 00:30:26;;;;;;;0.85;0.60;;;;;;;15.39;100.00;96887.09;12186855;19;20014;-79
2023/10/21 00:34:27;;;;;;;1.33;0.63;;;;;;;15.58;100.00;96886.44;12186605;19;20096;-79
2023/10/21 00:38:29;;;;;;;0.63;0.40;;;;;;;15.76;100.00;96881.41;12160842;19;20015;-78
2023/10/21 00:42:31;;;;;;;0.80;0.50;;;;;;;16.04;100.00;96892.47;12184064;19;20003;-79
2023/10/21 00:46:33;;;;;;;0.52;0.50;;;;;;;16.20;100.00;96898.03;12182764;19;20006;-77
2023/10/21 00:50:35;;;;;;;1.77;0.38;;;;;;;16.32;100.00;96899.94;12168112;19;20466;-78
2023/10/21 00:54:36;;;;;;;1.25;0.65;;;;;;;16.31;100.00;96901.09;12181934;19;20007;-76
2023/10/21 00:58:40;;;;;;;2.53;0.65;;;;;;;16.22;100.00;96912.38;12182650;19;21123;-77
2023/10/21 01:02:43;;;;;;;2.10;0.50;;;;;;;16.05;100.00;96901.63;12171801;19;20011;-76
2023/10/21 01:06:45;;;;;;;3.20;0.40;;;;;;;15.78;100.00;96917.97;12194104;19;20010;-79
2023/10/21 01:10:47;;;;;;;1.02;0.50;;;;;;;15.52;100.00;96912.03;12188720;19;20007;-78
2023/10/21 01:14:48;;;;;;;4.00;0.50;;;;;;;15.45;100.00;96918.19;12171187;19;20011;-78
2023/10/21 01:18:51;;;;;;;3.03;0.40;;;;;;;15.35;100.00;96913.94;12190099;19;20018;-77
2023/10/21 01:22:55;;;;;;;1.42;0.50;;;;;;;15.39;100.00;96909.31;12194796;19;20002;-78
2023/10/21 01:26:57;;;;;;;0.52;0.40;;;;;;;15.32;100.00;96925.75;12170294;19;20046;-79
2023/10/21 01:30:59;;;;;;;2.35;0.35;;;;;;;15.43;100.00;96924.06;12192499;19;20486;-81
2023/10/21 01:35:02;;;;;;;3.10;0.55;;;;;;;15.48;100.00;96928.56;12203093;19;20018;-82
2023/10/21 01:39:05;;;;;;;0.55;0.32;;;;;;;15.47;100.00;96943.63;12172766;19;20009;-81
2023/10/21 01:43:07;;;;;;;0.95;0.40;;;;;;;15.62;100.00;96940.09;12202722;19;20021;-80
2023/10/21 01:47:09;;;;;;;1.08;0.20;;;;;;;15.79;100.00;96960.41;12189075;19;20006;-78
2023/10/21 01:51:12;;;;;;;0.20;0.20;;;;;;;15.78;100.00;96954.03;12175548;19;20018;-79
2023/10/21 01:55:15;;;;;;;1.02;0.30;;;;;;;15.84;100.00;96963.75;12194779;19;20041;-77
2023/10/21 01:59:17;;;;;;;0.60;0.40;;;;;;;15.74;100.00;96986.47;12166339;19;20003;-80
2023/10/21 02:03:19;;;;;;;0.30;0.30;;;;;;;15.58;100.00;96999.44;12190602;19;20826;-79
2023/10/21 02:07:21;;;;;;;0.77;0.52;;;;;;;15.56;100.00;97001.75;12190639;19;20006;-78
2023/10/21 02:11:26;;;;;;;0.20;0.20;;;;;;;15.48;100.00;97006.28;12169579;19;20494;-79
2023/10/21 02:15:27;;;;;;;0.28;0.22;;;;;;;15.43;100.00;97025.94;12190804;19;20007;-77
2023/10/21 02:19:29;;;;;;;0.70;0.47;;;;;;;15.42;100.00;97027.09;12193659;19;20010;-79
2023/10/21 02:23:31;;;;;;;0.67;0.27;;;;;;;15.37;100.00;97039.25;12179961;19;20003;-79
2023/10/21 02:27:33;;;;;;;2.47;0.20;;;;;;;15.44;100.00;97055.31;12191501;19;20045;-80
2023/10/21 02:31:35;;;;;;;0.95;0.30;;;;;;;15.47;100.00;97071.28;12196293;19;20431;-82
2023/10/21 02:35:37;;;;;;;0.98;0.30;;;;;;;15.52;100.00;97086.88;12166187;19;20010;-80
2023/10/21 02:39:39;;;;;;;0.20;0.20;;;;;;;15.62;100.00;97097.50;12189069;19;20094;-82
2023/10/21 02:43:40;;;;;;;0.47;0.20;;;;;;;15.73;100.00;97106.97;12198531;19;20278;-81
2023/10/21 02:47:42;;;;;;;0.60;0.30;;;;;;;15.78;100.00;97130.94;12169295;19;20010;-79
2023/10/21 02:51:44;;;;;;;0.60;0.23;;;;;;;15.81;100.00;97142.16;12186939;19;20009;-78
2023/10/21 02:55:46;;;;;;;0.65;0.20;;;;;;;15.81;100.00;97147.69;12199617;19;20006;-80
2023/10/21 02:59:48;;;;;;;0.20;0.20;;;;;;;15.80;100.00;97156.38;12179856;19;20027;-80
2023/10/21 03:03:51;;;;;;;0.10;0.10;;;;;;;15.81;100.00;97169.09;12191340;19;20058;-78
2023/10/21 03:07:53;;;;;;;0.80;0.32;;;;;;;15.87;100.00;97193.50;12192410;19;20006;-79
2023/10/21 03:11:54;;;;;;;0.55;0.30;;;;;;;15.78;100.00;97206.69;12172253;19;20006;-81
2023/10/21 03:15:57;;;;;;;0.40;0.30;;;;;;;15.82;100.00;97220.69;12208419;19;20104;-80
2023/10/21 03:19:58;;;;;;;1.43;0.27;;;;;;;15.83;100.00;97228.69;12220655;19;20500;-79
2023/10/21 03:24:00;;;;;;;0.90;0.30;;;;;;;15.80;100.00;97237.72;12194688;19;20258;-79
2023/10/21 03:28:02;;;;;;;0.63;0.30;;;;;;;15.75;100.00;97260.16;12217060;19;20018;-81
2023/10/21 03:32:05;;;;;;;0.53;0.30;;;;;;;15.75;100.00;97281.56;12226485;19;20009;-78
2023/10/21 03:36:07;;;;;;;0.30;0.30;;;;;;;15.70;100.00;97297.28;12213217;19;20007;-79
2023/10/21 03:40:12;;;;;;;0.80;0.50;;;;;;;15.54;100.00;97306.59;12229417;19;20006;-80
2023/10/21 03:44:14;;;;;;;1.38;0.30;;;;;;;15.35;100.00;97312.66;12210883;19;20007;-78
2023/10/21 03:48:15;;;;;;;1.10;0.60;;;;;;;15.22;100.00;97320.94;12228453;19;20402;-80
2023/10/21 03:52:18;;;;;;;0.95;0.57;;;;;;;15.10;100.00;97343.06;12210162;19;20010;-81
2023/10/21 03:56:19;;;;;;;2.15;0.50;;;;;;;15.10;100.00;97361.69;12193326;19;20023;-80
2023/10/21 04:00:21;;;;;;;1.17;0.50;;;;;;;15.00;100.00;97362.91;12215298;19;20366;-81
2023/10/21 04:04:23;;;;;;;1.30;0.67;;;;;;;14.86;100.00;97365.94;12218091;19;20015;-81
2023/10/21 04:08:26;;;;;;;1.98;0.57;;;;;;;14.80;100.00;97370.06;12199014;19;20030;-80
2023/10/21 04:12:29;;;;;;;1.58;0.65;;;;;;;14.74;100.00;97376.97;12228060;19;20428;-80
2023/10/21 04:16:31;;;;;;;3.28;0.52;;;;;;;14.67;100.00;97387.78;12223791;19;20010;-81
2023/10/21 04:20:34;;;;;;;0.98;0.50;;;;;;;14.67;100.00;97390.56;12205559;19;20018;-81
2023/10/21 04:24:35;;;;;;;0.73;0.40;;;;;;;14.64;100.00;97403.13;12222101;19;20006;-81
2023/10/21 04:28:38;;;;;;;1.85;0.52;;;;;;;14.70;100.00;97412.06;12226394;19;20270;-78
2023/10/21 04:32:40;;;;;;;0.65;0.30;;;;;;;14.73;100.00;97416.94;12198986;19;20006;-80
2023/10/21 04:36:42;;;;;;;1.90;0.40;;;;;;;14.75;100.00;97417.38;12219126;19;20014;-80
2023/10/21 04:40:44;;;;;;;0.50;0.30;;;;;;;14.81;100.00;97411.31;12217332;19;20082;-81
2023/10/21 04:44:45;;;;;;;0.70;0.40;;;;;;;14.79;100.00;97421.94;12205363;19;20011;-78
2023/10/21 04:48:47;;;;;;;2.60;0.93;;;;;;;14.72;100.00;97434.69;12252221;19;20020;-80
2023/10/21 04:52:50;;;;;;;1.08;0.50;;;;;;;14.71;100.00;97450.50;12214305;19;20007;-79
2023/10/21 04:56:52;;;;;;;0.38;0.30;;;;;;;14.76;100.00;97455.88;12182862;19;20039;-79
2023/10/21 05:00:54;;;;;;;3.40;0.60;;;;;;;14.84;100.00;97472.78;12207265;19;20002;-78
2023/10/21 05:04:56;;;;;;;1.17;0.70;;;;;;;14.90;100.00;97477.81;12200935;19;20015;-81
2023/10/21 05:08:58;;;;;;;0.67;0.33;;;;;;;15.03;100.00;97490.63;12174911;19;20010;-81
2023/10/21 05:13:00;;;;;;;0.50;0.40;;;;;;;15.06;100.00;97507.75;12198695;19;20427;-81
2023/10/21 05:17:02;;;;;;;3.45;0.60;;;;;;;15.09;100.00;97512.63;12197473;19;20039;-79
2023/10/21 05:21:08;;;;;;;0.85;0.50;;;;;;;15.09;100.00;97529.25;12175768;19;20367;-80
2023/10/21 05:25:10;;;;;;;2.63;0.55;;;;;;;15.17;100.00;97533.91;12193054;19;20047;-80
2023/10/21 05:29:12;;;;;;;0.63;0.50;;;;;;;15.18;100.00;97538.34;12179538;19;20021;-81
2023/10/21 05:33:13;;;;;;;1.00;0.37;;;;;;;15.14;100.00;97551.22;12197835;19;20002;-81
2023/10/21 05:37:15;;;;;;;1.60;0.50;;;;;;;15.19;100.00;97564.91;12194246;19;20122;-81
2023/10/21 05:41:17;;;;;;;4.43;0.50;;;;;;;15.15;100.00;97575.06;12179217;19;20010;-80
2023/10/21 05:45:19;;;;;;;1.08;0.30;;;;;;;15.20;100.00;97588.72;12193965;19;20423;-80
2023/10/21 05:49:22;;;;;;;1.80;0.40;;;;;;;15.28;100.00;97591.47;12193885;19;20018;-82
2023/10/21 05:53:24;;;;;;;0.70;0.30;;;;;;;15.32;100.00;97613.00;12175004;19;20066;-81
2023/10/21 05:57:26;;;;;;;1.02;0.35;;;;;;;15.37;100.00;97616.38;12192047;19;20014;-81
2023/10/21 06:01:28;;;;;;;1.35;0.40;;;;;;;15.35;100.00;97626.19;12193495;19;20463;-81
2023/10/21 06:05:30;;;;;;;0.93;0.52;;;;;;;15.36;100.00;97641.72;12169751;19;20139;-81
2023/10/21 06:09:32;;;;;;;1.65;0.50;;;;;;;15.36;100.00;97650.84;12191986;19;19998;-79
2023/10/21 06:13:34;;;;;;;1.35;0.40;;;;;;;15.38;100.00;97659.66;12194337;19;20114;-82
2023/10/21 06:17:36;;;;;;;0.30;0.30;;;;;;;15.46;100.00;97672.66;12170492;19;20010;-81
2023/10/21 06:21:38;;;;;;;1.53;0.50;;;;;;;15.54;100.00;97692.41;12188989;19;20647;-80
2023/10/21 06:25:40;;;;;;;2.22;0.55;;;;;;;15.53;100.00;97690.75;12190119;19;20007;-82
2023/10/21 06:29:42;;;;;;;0.53;0.40;;;;;;;15.42;100.00;97716.13;12169393;19;21208;-80
2023/10/21 06:33:44;;;;;;;0.98;0.35;;;;;;;15.36;100.00;97717.44;12191725;19;20027;-81
2023/10/21 06:37:48;;;;;;;4.53;0.40;;;;;;;15.18;100.00;97727.78;12190616;19;20006;-79
2023/10/21 06:41:50;;;;;;;0.40;0.40;;;;;;;15.19;100.00;97726.63;12179458;19;20056;-81
2023/10/21 06:45:52;;;;;;;1.52;0.22;;;;;;;15.09;100.00;97756.72;12200801;19;20024;-80
2023/10/21 06:49:54;;;;;;;2.37;0.43;;;;;;;15.09;100.00;97762.25;12212437;19;20010;-80
2023/10/21 06:53:56;;;;;;;0.35;0.30;;;;;;;15.06;100.00;97765.69;12191641;19;20256;-82
2023/10/21 06:57:57;;;;;;;0.40;0.38;;;;;;;14.99;100.00;97780.88;12209607;19;20014;-81
2023/10/21 07:01:59;;;;;;;0.38;0.35;;;;;;;14.91;100.00;97784.47;12227242;19;20019;-79
2023/10/21 07:06:01;;;;;;;0.50;0.40;;;;;;;14.91;100.00;97795.56;12190442;19;20051;-80
2023/10/21 07:10:03;;;;;;;0.52;0.20;;;;;;;15.04;100.00;97802.06;12212392;19;20629;-79
2023/10/21 07:14:05;;;;;;;0.30;0.30;;;;;;;15.03;100.00;97817.88;12212160;19;20010;-80
2023/10/21 07:18:08;;;;;;;1.00;0.30;;;;;;;14.91;100.00;97842.69;12195708;19;20003;-80
2023/10/21 07:22:11;;;;;;;1.58;0.32;;;;;;;14.74;100.00;97851.00;12220222;19;20023;-81
2023/10/21 07:26:15;;;;;;;0.73;0.35;;;;;;;14.70;100.00;97852.81;12205034;19;20358;-80
2023/10/21 07:30:18;;;;;;;2.80;0.60;;;;;;;14.60;100.00;97865.00;12233527;19;20433;-79
2023/10/21 07:34:23;;;;;;;1.55;0.40;;;;;;;14.59;100.00;97855.06;12212889;19;20041;-79
2023/10/21 07:38:25;;;;;;;1.67;0.52;;;;;;;14.69;100.00;97862.25;12197255;19;20010;-78
2023/10/21 07:42:27;;;;;;;0.87;0.50;;;;;;;14.72;100.00;97872.69;12213054;19;20418;-80
2023/10/21 07:46:28;;;;;;;0.90;0.30;;;;;;;14.77;100.00;97878.88;12193465;19;20091;-79
2023/10/21 07:50:30;;;;;;;1.10;0.40;;;;;;;14.98;100.00;97876.28;12199227;19;20036;-78
2023/10/21 07:54:32;;;;;;;1.65;0.60;;;;;;;15.29;100.00;97903.06;12215489;19;20050;-80
2023/10/21 07:58:35;;;;;;;0.63;0.40;;;;;;;15.76;100.00;97896.81;12218932;19;20010;-81
2023/10/21 08:02:38;;;;;;;;;;;;;;;16.04;100.00;97902.78;12206287;19;20019;-81
2023/10/21 08:06:41;;;;;;;1.77;0.47;;;;;;;16.06;100.00;97914.34;12226497;19;19910;-80
2023/10/21 08:10:44;;;;;;;0.95;0.57;;;;;;;16.10;100.00;97923.69;12229030;19;20476;-81
2023/10/21 08:14:45;;;;;;;1.75;0.50;;;;;;;16.18;100.00;97937.53;12210865;19;20022;-80
2023/10/21 08:18:48;;;;;;;1.90;0.50;;;;;;;15.98;100.00;97937.44;12258461;19;20006;-81
2023/10/21 08:22:50;;;;;;;2.30;0.50;;;;;;;15.85;100.00;97948.41;12235928;19;20009;-80
2023/10/21 08:26:52;;;;;;;2.53;0.43;;;;;;;15.81;100.00;97961.31;12209256;19;20002;-81
2023/10/21 08:30:54;;;;;;;0.70;0.37;;;;;;;15.94;100.00;97971.44;12225554;19;20009;-81
2023/10/21 08:34:56;;;;;;;3.65;0.40;;;;;;;15.95;99.96;97986.13;12223294;19;20093;-81
2023/10/21 08:38:58;;;;;;;0.47;0.30;;;;;;;16.03;99.90;97978.91;12199128;19;20011;-79
2023/10/21 08:43:03;;;;;;;3.60;0.50;;;;;;;16.20;99.50;97986.41;12221050;19;20022;-80
2023/10/21 08:47:07;;;;;;;1.42;0.60;;;;;;;16.21;98.52;98007.47;12219855;19;20070;-79
2023/10/21 08:51:11;;;;;;;1.77;0.77;;;;;;;16.20;99.44;98005.84;12199014;19;20006;-79
2023/10/21 08:55:15;;;;;;;1.85;0.60;;;;;;;16.13;98.91;98009.97;12218780;19;20473;-79
2023/10/21 08:59:17;;;;;;;2.00;0.60;;;;;;;16.18;100.00;98028.41;12187463;19;20407;-80
2023/10/21 09:03:19;;;;;;;1.50;0.50;;;;;;;16.32;99.50;98029.03;12221296;19;20003;-80
2023/10/21 09:07:22;;;;;;;4.77;0.67;;;;;;;16.27;93.64;98048.69;12214852;19;20006;-82
2023/10/21 09:11:26;;;;;;;1.90;0.52;;;;;;;16.19;90.90;98052.28;12195088;19;20011;-78
2023/10/21 09:15:37;;;;;;;4.45;0.57;;;;;;;16.04;91.96;98050.03;12212953;19;20002;-77
2023/10/21 09:19:42;;;;;;;2.10;0.43;;;;;;;15.92;93.01;98061.78;12215992;19;20010;-78
2023/10/21 09:23:51;;;;;;;1.88;0.50;;;;;;;16.02;92.27;98063.41;12192719;19;20003;-79
2023/10/21 09:27:55;;;;;;;2.05;0.45;;;;;;;16.10;89.93;98062.59;12220559;19;20006;-78
2023/10/21 09:31:58;;;;;;;2.55;0.50;;;;;;;16.16;88.73;98077.94;12217386;19;20017;-76
2023/10/21 09:36:01;;;;;;;7.78;0.70;;;;;;;16.15;90.60;98079.91;12194875;19;20011;-77
2023/10/21 09:40:25;;;;;;;1.73;0.40;;;;;;;16.31;88.80;98091.34;12214934;19;20003;-80
2023/10/21 09:44:27;;;;;;;2.15;0.73;;;;;;;16.42;87.61;98097.38;12191866;19;20264;-76
2023/10/21 09:48:31;;;;;;;1.50;0.60;;;;;;;16.55;86.34;98081.63;12206983;19;19998;-77
2023/10/21 09:52:40;;;;;;;2.00;0.55;;;;;;;16.56;86.31;98083.25;12212285;19;20287;-77
2023/10/21 09:56:43;;;;;;;2.78;0.57;;;;;;;16.65;83.49;98075.69;12169515;19;20003;-77
2023/10/21 10:00:46;;;;;;;2.22;0.77;;;;;;;16.92;83.87;98084.81;12199257;19;20073;-78
2023/10/21 10:04:49;;;;;;;1.95;0.50;;;;;;;17.13;80.30;98082.91;12202968;19;20007;-79
2023/10/21 10:08:51;;;;;;;0.85;0.30;;;;;;;17.51;80.12;98076.47;12182214;19;20011;-78
2023/10/21 10:13:01;;;;;;;4.50;0.70;;;;;;;18.14;76.08;98093.19;12158073;19;20009;-78
2023/10/21 10:17:06;;;;;;;1.85;0.50;;;;;;;18.66;71.06;98089.91;12202269;19;20046;-78
2023/10/21 10:21:13;;;;;;;2.70;0.80;;;;;;;19.06;68.81;98104.06;12183358;19;20007;-77
2023/10/21 10:25:33;;;;;;;2.53;0.40;;;;;;;19.25;65.37;98089.53;12199151;19;20006;-77
2023/10/21 10:29:35;;;;;;;3.75;0.70;;;;;;;19.42;65.97;98094.06;12180174;19;20050;-78
2023/10/21 10:33:39;;;;;;;2.22;0.85;;;;;;;19.18;64.30;98089.28;12198503;19;20007;-77
2023/10/21 10:37:50;;;;;;;1.88;0.60;;;;;;;18.87;66.62;98085.09;12201014;19;20052;-78
2023/10/21 10:41:52;;;;;;;2.42;0.70;;;;;;;18.67;65.72;98088.75;12179661;19;20063;-79
2023/10/21 10:45:54;;;;;;;1.60;0.43;;;;;;;18.54;64.42;98092.66;12201250;19;20006;-78
2023/10/21 10:49:59;;;;;;;1.90;0.52;;;;;;;18.54;63.65;98089.88;12200029;19;20259;-78
2023/10/21 10:54:01;;;;;;;2.05;0.52;;;;;;;18.43;65.88;98109.00;12181431;19;20010;-79
2023/10/21 10:58:05;;;;;;;3.25;0.60;;;;;;;18.67;65.32;98097.09;12202043;19;20026;-80
2023/10/21 11:02:11;;;;;;;1.58;0.40;;;;;;;19.00;63.37;98099.88;12209740;19;20007;-78
2023/10/21 11:06:13;;;;;;;3.70;0.80;;;;;;;19.19;64.97;98090.13;12189055;19;20383;-80
2023/10/21 11:10:22;;;;;;;2.10;0.70;;;;;;;19.34;64.89;98089.44;12209618;19;20010;-79
2023/10/21 11:14:27;;;;;;;3.17;0.60;;;;;;;19.54;62.78;98091.28;12199489;19;20014;-79
2023/10/21 11:18:30;;;;;;;2.50;0.60;;;;;;;19.58;63.32;98097.78;12228138;19;20007;-80
2023/10/21 11:22:33;;;;;;;3.95;0.73;;;;;;;19.67;62.89;98097.69;12224613;19;20293;-81
2023/10/21 11:26:35;;;;;;;0.88;0.47;;;;;;;20.02;62.61;98092.38;12194603;19;20011;-81
2023/10/21 11:30:37;;;;;;;2.72;0.60;;;;;;;20.46;58.20;98080.41;12212847;19;20386;-79
2023/10/21 11:34:44;;;;;;;0.97;0.43;;;;;;;20.64;53.50;98089.31;12215523;19;20010;-79
2023/10/21 11:38:46;;;;;;;2.25;0.68;;;;;;;20.97;55.23;98083.41;12196676;19;20405;-79
2023/10/21 11:42:58;;;;;;;1.53;0.57;;;;;;;21.43;52.32;98089.38;12218483;19;20021;-78
2023/10/21 11:47:09;;;;;;;2.27;0.50;;;;;;;21.87;49.78;98091.16;12214355;19;20034;-79
2023/10/21 11:51:11;;;;;;;1.58;0.65;;;;;;;22.01;48.70;98080.25;12192325;19;20030;-79
2023/10/21 12:00:45;;;;;;;2.95;0.80;;;;;;;22.75;47.76;98078.19;12185398;19;20006;-77
2023/10/21 12:04:38;;;;;;;1.83;0.57;;;;;;;22.77;47.19;98079.78;12206352;19;20375;-78
2023/10/21 12:18:12;;;;;;;1.33;0.40;;;;;;;23.34;45.03;98084.41;12206564;19;20021;-78
2023/10/21 12:34:35;;;;;;;2.78;0.60;;;;;;;24.62;41.55;98092.25;12207573;19;20031;-78
2023/10/21 12:38:41;;;;;;;2.45;0.55;;;;;;;24.85;41.20;98098.53;12178905;19;20042;-79
2023/10/21 12:42:47;;;;;;;3.30;0.70;;;;;;;25.20;41.32;98103.72;12208657;19;20018;-78
2023/10/21 12:46:55;;;;;;;3.08;0.57;;;;;;;25.66;40.99;98089.19;12190339;19;20007;-78
2023/10/21 12:50:57;;;;;;;2.78;1.00;;;;;;;25.68;39.27;98100.88;12179407;19;20010;-79
2023/10/21 12:54:59;;;;;;;4.63;0.77;;;;;;;25.30;38.82;98105.03;12205388;19;20018;-78
2023/10/21 12:59:01;;;;;;;;;;;;;;;24.36;39.07;98099.53;12200392;19;20019;-81
2023/10/21 13:03:10;;;;;;;4.77;0.80;;;;;;;23.16;39.93;98103.78;12184901;19;20279;-80
2023/10/21 13:07:13;;;;;;;2.90;0.80;;;;;;;22.22;42.04;98108.81;12202943;19;20487;-79
2023/10/21 13:11:17;;;;;;;3.28;0.50;;;;;;;21.67;43.14;98101.53;12187293;19;20022;-79
2023/10/21 13:15:19;;;;;;;2.83;0.70;;;;;;;21.11;43.26;98108.16;12204838;19;20007;-79
2023/10/21 13:19:22;;;;;;;0.90;0.40;;;;;;;20.72;44.56;98110.72;12203313;19;20011;-78
2023/10/21 13:23:28;;;;;;;4.00;0.80;;;;;;;20.67;45.30;98110.97;12183781;19;20010;-78
2023/10/21 13:27:37;;;;;;;1.75;0.45;;;;;;;20.43;45.81;98117.47;12204865;19;20126;-78
2023/10/21 13:31:39;;;;;;;1.07;0.50;;;;;;;20.06;46.42;98119.63;12205016;19;19999;-78
2023/10/21 13:35:41;;;;;;;1.95;0.40;;;;;;;19.80;46.79;98138.41;12183752;19;20011;-78
2023/10/21 13:39:43;;;;;;;1.70;0.60;;;;;;;19.73;47.92;98129.81;12206963;19;20483;-78
2023/10/21 13:43:45;;;;;;;2.85;0.65;;;;;;;19.83;47.56;98136.88;12213446;19;20028;-80
2023/10/21 13:47:53;;;;;;;3.53;0.50;;;;;;;19.90;46.49;98145.50;12183391;19;20014;-80
2023/10/21 13:51:55;;;;;;;1.63;0.60;;;;;;;19.84;47.07;98141.34;12198617;19;20009;-78
2023/10/21 13:55:56;;;;;;;2.28;0.70;;;;;;;19.77;47.20;98135.50;12200736;19;20062;-77
2023/10/21 13:59:58;;;;;;;1.63;0.47;;;;;;;19.71;47.35;98132.13;12178668;19;20027;-79
2023/10/21 14:04:00;;;;;;;2.78;0.60;;;;;;;19.65;48.25;98132.72;12193110;19;20561;-79
2023/10/21 14:08:03;;;;;;;5.28;1.42;;;;;;;19.54;47.92;98140.72;12199215;19;20017;-78
2023/10/21 14:12:08;;;;;;;1.05;0.50;;;;;;;19.45;48.51;98138.03;12175710;19;20006;-78
2023/10/21 14:16:11;;;;;;;3.47;0.80;;;;;;;19.43;48.46;98140.41;12203345;19;20007;-78
2023/10/21 14:20:14;;;;;;;3.42;0.60;;;;;;;19.64;48.09;98145.03;12179634;19;20063;-80
2023/10/21 14:24:16;;;;;;;1.58;0.57;;;;;;;19.68;47.74;98157.16;12194343;19;20013;-78
2023/10/21 14:28:18;;;;;;;2.53;0.60;;;;;;;19.65;48.00;98152.28;12206992;19;20010;-79
2023/10/21 14:32:21;;;;;;;1.63;0.43;;;;;;;19.62;48.03;98158.53;12183457;19;20438;-79
2023/10/21 14:36:23;;;;;;;;;;;;;;;19.58;47.86;98156.44;12198655;19;20465;-81
2023/10/21 14:40:25;;;;;;;1.20;0.50;;;;;;;19.58;48.34;98148.06;12200671;19;19910;-81
2023/10/21 14:44:27;;;;;;;3.50;0.70;;;;;;;19.55;48.67;98157.16;12178188;19;20796;-80
2023/10/21 14:48:28;;;;;;;2.03;0.50;;;;;;;19.58;48.86;98162.03;12199102;19;21330;-80
2023/10/21 14:52:30;;;;;;;1.93;0.57;;;;;;;19.77;49.29;98167.06;12202979;19;20016;-79
2023/10/21 14:56:32;;;;;;;4.03;0.90;;;;;;;19.85;48.59;98167.28;12178645;19;21913;-80
2023/10/21 15:00:36;;;;;;;2.30;0.75;;;;;;;19.86;48.00;98164.13;12203904;19;20011;-81
2023/10/21 15:04:38;;;;;;;1.33;0.50;;;;;;;19.85;48.50;98170.09;12197115;19;20014;-79
2023/10/21 15:08:42;;;;;;;1.83;0.80;;;;;;;19.61;48.83;98173.69;12175020;19;20007;-79
2023/10/21 15:12:45;;;;;;;2.40;0.70;;;;;;;19.46;48.27;98173.22;12203783;19;20002;-80
2023/10/21 15:16:47;;;;;;;1.83;0.50;;;;;;;19.27;49.15;98181.31;12198272;19;20014;-80
2023/10/21 15:20:49;;;;;;;3.50;0.60;;;;;;;18.98;49.68;98185.94;12182544;19;20006;-80
2023/10/21 15:24:51;;;;;;;3.25;0.82;;;;;;;18.74;50.08;98185.84;12203311;19;20010;-80
2023/10/21 15:28:52;;;;;;;2.13;0.80;;;;;;;18.52;50.86;98190.63;12200923;19;20025;-80
2023/10/21 15:32:56;;;;;;;3.10;0.50;;;;;;;18.39;51.64;98203.69;12182827;19;20007;-80
2023/10/21 15:36:59;;;;;;;1.17;0.47;;;;;;;18.23;52.04;98211.03;12198786;19;20011;-80
2023/10/21 15:41:01;;;;;;;1.95;0.60;;;;;;;18.11;53.04;98210.97;12174031;19;20025;-79
2023/10/21 15:45:03;;;;;;;2.83;0.60;;;;;;;17.95;53.85;98207.97;12174294;19;20007;-78
2023/10/21 15:49:05;;;;;;;2.85;0.77;;;;;;;17.77;54.58;98213.63;12175022;19;20713;-80
2023/10/21 15:53:07;;;;;;;1.87;0.50;;;;;;;17.61;55.63;98217.28;12164149;19;20007;-79
2023/10/21 15:57:09;;;;;;;5.95;0.95;;;;;;;17.42;56.83;98226.06;12194088;19;20018;-78
2023/10/21 16:01:11;;;;;;;1.90;0.50;;;;;;;17.17;58.31;98231.38;12187490;19;20051;-79
2023/10/21 16:05:13;;;;;;;5.00;0.77;;;;;;;16.97;59.04;98232.09;12164045;19;20010;-79
2023/10/21 16:09:15;;;;;;;3.10;1.10;;;;;;;16.79;59.71;98240.47;12194130;19;20009;-78
2023/10/21 16:13:17;;;;;;;3.30;0.90;;;;;;;16.63;61.27;98245.69;12194537;19;20014;-78
2023/10/21 16:17:19;;;;;;;3.92;0.73;;;;;;;16.43;63.06;98245.53;12175444;19;20003;-79
2023/10/21 16:21:21;;;;;;;4.95;0.90;;;;;;;16.20;65.15;98248.44;12203073;19;21303;-79
2023/10/21 16:25:23;;;;;;;5.30;1.10;;;;;;;16.05;68.17;98258.06;12210427;19;20111;-79
2023/10/21 16:29:25;;;;;;;5.57;0.95;;;;;;;15.91;72.38;98266.53;12183040;19;22264;-78
2023/10/21 16:33:27;;;;;;;5.30;0.98;;;;;;;15.77;73.65;98265.84;12208752;19;19998;-79
2023/10/21 16:37:29;;;;;;;3.20;0.90;;;;;;;15.63;74.75;98276.19;12207697;19;20006;-79
2023/10/21 16:41:30;;;;;;;2.95;0.90;;;;;;;15.47;76.98;98286.91;12186542;19;20078;-79
2023/10/21 16:45:32;;;;;;;4.68;1.58;;;;;;;15.36;75.43;98294.69;12204818;19;19999;-78
2023/10/21 16:49:34;;;;;;;2.93;1.33;;;;;;;15.25;76.20;98290.53;12208480;19;20596;-77
2023/10/21 16:53:37;;;;;;;3.00;1.00;;;;;;;15.15;76.51;98299.94;12186873;19;20018;-78
2023/10/21 16:57:38;;;;;;;2.03;1.02;;;;;;;15.16;76.85;98309.09;12208506;19;20023;-79
2023/10/21 17:01:41;;;;;;;2.67;1.10;;;;;;;15.16;79.83;98309.09;12206726;19;20101;-78
2023/10/21 17:05:44;;;;;;;4.97;1.80;;;;;;;15.14;80.61;98325.22;12181672;19;20081;-78
2023/10/21 17:09:48;;;;;;;5.03;1.30;;;;;;;15.13;80.93;98320.81;12203535;19;20007;-79
2023/10/21 17:13:50;;;;;;;2.08;1.10;;;;;;;15.11;82.55;98329.47;12194965;19;20018;-79
2023/10/21 17:17:52;;;;;;;2.22;0.98;;;;;;;15.10;83.73;98327.81;12207404;19;20390;-79
2023/10/21 17:21:54;;;;;;;2.15;0.80;;;;;;;15.12;82.17;98339.44;12204286;19;20350;-80
2023/10/21 17:25:56;;;;;;;3.90;1.00;;;;;;;15.22;80.18;98341.13;12175341;19;20006;-79
2023/10/21 17:29:57;;;;;;;2.50;0.82;;;;;;;15.33;79.24;98347.25;12198468;19;20014;-78
2023/10/21 17:33:59;;;;;;;4.05;0.80;;;;;;;15.38;78.48;98344.34;12213627;19;20047;-78
2023/10/21 17:38:01;;;;;;;8.88;0.80;;;;;;;15.36;79.86;98357.72;12191453;19;20030;-79
2023/10/21 17:42:03;;;;;;;3.35;0.93;;;;;;;15.27;80.04;98363.19;12209762;19;20138;-79
2023/10/21 17:46:05;;;;;;;5.45;1.00;;;;;;;15.28;78.67;98357.31;12201993;19;20036;-79
2023/10/21 17:50:08;;;;;;;2.30;1.00;;;;;;;15.28;79.64;98365.63;12186283;19;20073;-79
2023/10/21 17:54:13;;;;;;;5.32;1.08;;;;;;;15.27;80.84;98371.53;12206125;19;20014;-78
2023/10/21 17:58:15;;;;;;;6.72;1.30;;;;;;;15.22;83.51;98366.91;12203881;19;20031;-80
2023/10/21 18:02:17;;;;;;;3.83;0.93;;;;;;;15.18;84.41;98374.25;12196835;19;20006;-80
2023/10/21 18:06:19;;;;;;;3.45;1.10;;;;;;;15.11;85.65;98371.09;12214264;19;20013;-79
2023/10/21 18:10:21;;;;;;;6.63;1.65;;;;;;;15.07;86.05;98374.78;12214646;19;20103;-79
2023/10/21 18:14:23;;;;;;;2.42;1.02;;;;;;;14.96;86.43;98372.28;12190388;19;20671;-80
2023/10/21 18:18:24;;;;;;;3.67;1.17;;;;;;;14.81;87.06;98375.38;12213204;19;20010;-80
2023/10/21 18:22:26;;;;;;;2.58;1.10;;;;;;;14.82;87.13;98371.50;12212480;19;20017;-80
2023/10/21 18:26:28;;;;;;;2.55;1.10;;;;;;;14.87;86.76;98385.22;12188269;19;20011;-79
2023/10/21 18:30:30;;;;;;;5.03;0.90;;;;;;;14.90;86.59;98384.63;12216540;19;20022;-78
2023/10/21 18:34:32;;;;;;;4.27;1.10;;;;;;;14.87;86.57;98379.69;12212217;19;20044;-79
2023/10/21 18:38:34;;;;;;;2.38;1.10;;;;;;;14.76;85.81;98384.66;12196471;19;20002;-80
2023/10/21 18:42:35;;;;;;;2.60;1.05;;;;;;;14.69;85.96;98389.78;12217323;19;20663;-79
2023/10/21 18:46:37;;;;;;;3.17;1.30;;;;;;;14.56;86.41;98399.78;12208366;19;20042;-78
2023/10/21 18:50:40;;;;;;;2.85;1.30;;;;;;;14.46;87.33;98397.22;12189335;19;20044;-78
2023/10/21 18:54:43;;;;;;;5.05;1.48;;;;;;;14.40;87.82;98403.19;12210144;19;20108;-79
2023/10/21 18:58:45;;;;;;;3.38;1.25;;;;;;;14.33;88.14;98414.66;12217033;19;20017;-79
2023/10/21 19:02:47;;;;;;;9.10;1.98;;;;;;;14.28;88.16;98423.09;12208266;19;20115;-81
2023/10/21 19:06:49;;;;;;;4.22;1.40;;;;;;;14.18;88.68;98424.09;12221337;19;20014;-78
2023/10/21 19:10:51;;;;;;;3.40;1.50;;;;;;;14.13;89.06;98435.31;12192433;19;20022;-79